The Official Home Page Of The Professional Rodeo Cowboys Association PRCA RAM WORLD STANDINGS
ProRodeoTv.Com


Official Gear Of The PRCA

PRCA Stock Statistics

SEARCH BY:
Stock Rodeo Contestant Stock Contractor

Ednei Caminhas

EVENT:
Unofficial results reflect placement at time of Web posting and can change.

SEASON BREAKDOWN

Season Attempts Qual Rides Re-rides Ride %
2018 25 9 0 36.00 %
2017 97 41 0 42.27 %
2016 103 41 0 39.81 %
Totals 225 91 0 0.00 %

RODEO DETAIL

Date Location Rodeo SC Brand Ride Comments Stock Score Contestant Score
6/1/2018 Hugo, OK Hugo PRCA Rodeo RH 141 0.00 20.50 / 20.50 0.00 / 0.00
5/28/2018 Fort Smith, AR Old Fort Days Rodeo AN F42 0.00 23.00 / 22.00 0.00 / 0.00
5/27/2018 Claremore, OK Will Rogers Stampede PC 150X 0.00 22.00 / 20.00 0.00 / 0.00
5/25/2018 Bandera, TX Bandera Pro Rodeo RG 424 81.50 20.00 / 20.50 20.00 / 21.00
5/18/2018 Killeen, TX Rodeo Killeen AN F16 0.00 20.00 / 20.00 0.00 / 0.00
5/11/2018 Bridgeport, TX Butterfield Stage Days PRCA Rodeo CR 271 84.00 21.00 / 20.00 22.00 / 21.00
3/23/2018 Beaumont, TX YMBL Championship Rodeo FR H18 74.50 19.00 / 18.00 19.50 / 18.00
3/18/2018 Austin, TX Rodeo Austin PR 503 66.00 16.00 / 15.00 17.00 / 18.00
3/15/2018 Montgomery, AL Southeastern Livestock Exposition FR H98 82.00 21.00 / 20.00 21.00 / 20.00
3/3/2018 Fort Mohave, AZ Fort Mohave Classic PRCA Xtreme Bulls SR 1211 0.00 18.00 / 20.00 0.00 / 0.00
2/24/2018 San Antonio, TX San Antonio Stock Show & Rodeo Xtreme Bulls LH 4948 0.00 20.50 / 20.00 0.00 / 0.00
2/19/2018 San Antonio, TX San Antonio Stock Show & Rodeo BH 281 0.00 21.00 / 20.50 0.00 / 0.00
2/18/2018 San Antonio, TX San Antonio Stock Show & Rodeo RH 123 0.00 21.00 / 22.00 0.00 / 0.00
2/18/2018 San Antonio, TX San Antonio Stock Show & Rodeo FR 211 0.00 20.00 / 21.50 0.00 / 0.00
2/16/2018 San Angelo, TX San Angelo Rodeo CR 126 86.50 21.50 / 22.00 22.00 / 21.00
2/11/2018 Jackson, MS Dixie National Rodeo BR 26 0.00 21.50 / 20.00 0.00 / 0.00
2/10/2018 Starkville, MS Rotary Rodeo PC 121 0.00 21.00 / 21.00 0.00 / 0.00
2/9/2018 Belton, TX Bell County PRCA Rodeo AN T11 83.00 21.00 / 21.00 20.00 / 21.00
2/2/2018 San Angelo, TX San Angelo Rodeo CR 291 85.50 21.00 / 21.50 21.00 / 22.00
1/29/2018 Fort Worth, TX Southwestern Exposition and Livestock Show WR 201 0.00 18.50 / 18.50 0.00 / 0.00
1/28/2018 Fort Worth, TX Southwestern Exposition and Livestock Show RG 428 0.00 18.00 / 18.50 0.00 / 0.00
1/17/2018 Fort Worth, TX SWELS - Xtreme Bulls SH 419 0.00 21.00 / 21.50 0.00 / 0.00
1/14/2018 Lafayette, LA Mid Winter Fair & Rodeo FR 407 0.00 22.50 / 20.00 0.00 / 0.00
1/11/2018 Odessa, TX Sandhills Stock Show & Rodeo BU 260 80.50 21.00 / 21.50 19.50 / 18.50
10/18/2017 Liberty, TX Trinity Valley Expo Division 2 Xtreme Bulls LJ 040 0.00 21.50 / 21.50 0.00 / 0.00
Page of 1
Per Page
 
 
 
PRCA National Sponsors
MGM Grand Polaris Ranger American Quarter Horse Association Cinch Jeans
Copyright © 2018 Professional Rodeo Cowboys Association. All rights reserved. No portion of ProRodeo.com may be duplicated, redistributed or manipulated in any form. By accessing any information beyond this page, you agree to abide by the Terms of Use.
PRCA Wrangler National Finals Rodeo Wrangler ProRodeo Tour Finale Presented by Justin Boots Xtreme Bulls RAM National Circuit Finals Rodeo ProRodeo Gear ProRodeo Tour